createdAt,value
2022-08-15T00:00:26.095Z,6.45
2022-08-15T00:03:00.424Z,4.47
2022-08-15T00:05:32.677Z,4.57
2022-08-15T00:08:48.673Z,2.97
2022-08-15T00:11:01.269Z,11.02
2022-08-15T00:13:41.594Z,5.10
2022-08-15T00:16:10.808Z,3.97
2022-08-15T00:18:48.698Z,4.03
2022-08-15T00:21:18.504Z,3.63
2022-08-15T00:23:51.279Z,4.70
2022-08-15T00:26:28.302Z,6.70
2022-08-15T00:29:07.681Z,7.90
2022-08-15T00:31:41.872Z,8.50
2022-08-15T00:34:38.989Z,4.32
2022-08-15T00:37:05.239Z,6.65
2022-08-15T00:39:37.547Z,3.88
2022-08-15T00:42:07.751Z,6.30
2022-08-15T00:45:00.392Z,5.25
2022-08-15T00:47:38.913Z,5.90
2022-08-15T00:50:33.920Z,11.63
2022-08-15T00:52:57.317Z,4.75
2022-08-15T00:55:28.359Z,5.15
2022-08-15T00:58:01.374Z,3.38
2022-08-15T01:00:44.945Z,12.40
2022-08-15T01:03:18.847Z,8.27
2022-08-15T01:05:51.559Z,3.63
2022-08-15T01:08:31.018Z,2.95
2022-08-15T01:11:33.639Z,6.47
2022-08-15T01:14:54.708Z,5.13
2022-08-15T01:16:50.378Z,3.92
2022-08-15T01:19:40.162Z,4.55
2022-08-15T01:22:44.265Z,4.75
2022-08-15T01:26:42.239Z,2.70
2022-08-15T01:28:40.255Z,4.13
2022-08-15T01:31:18.788Z,8.10
2022-08-15T01:33:53.508Z,5.22
2022-08-15T01:36:32.226Z,3.67
2022-08-15T01:39:08.201Z,4.60
2022-08-15T01:41:54.672Z,4.20
2022-08-15T01:44:50.597Z,4.85
2022-08-15T01:48:01.784Z,8.57
2022-08-15T01:50:41.700Z,4.68
2022-08-15T01:53:47.758Z,10.70
2022-08-15T01:56:35.902Z,7.60
2022-08-15T01:59:06.485Z,8.13
2022-08-15T02:01:56.505Z,3.88
2022-08-15T02:04:37.244Z,8.15
2022-08-15T02:07:10.122Z,5.20
2022-08-15T02:09:51.318Z,5.68
2022-08-15T02:13:04.365Z,7.90
2022-08-15T02:15:17.244Z,4.65
2022-08-15T02:17:45.480Z,5.85
2022-08-15T02:20:20.744Z,5.75
2022-08-15T02:22:52.494Z,4.70
2022-08-15T02:25:22.701Z,4.07
2022-08-15T02:27:52.287Z,3.83
2022-08-15T02:30:21.964Z,5.25
2022-08-15T02:32:58.131Z,6.63
2022-08-15T02:35:28.851Z,3.50
2022-08-15T02:37:58.132Z,5.97
2022-08-15T02:40:44.304Z,5.20
2022-08-15T02:43:16.208Z,4.97
2022-08-15T02:45:56.179Z,4.03
2022-08-15T02:48:38.139Z,3.60
2022-08-15T02:51:13.828Z,3.65
2022-08-15T02:53:47.839Z,4.15
2022-08-15T02:56:22.239Z,5.20
2022-08-15T02:58:49.849Z,2.25
2022-08-15T03:01:23.972Z,4.93
2022-08-15T03:03:53.056Z,6.07
2022-08-15T03:06:31.325Z,6.57
2022-08-15T03:09:02.550Z,4.63
2022-08-15T03:11:40.266Z,2.92
2022-08-15T03:14:32.647Z,3.55
2022-08-15T03:17:06.426Z,2.35
2022-08-15T03:19:33.591Z,2.25
2022-08-15T03:22:00.598Z,3.33
2022-08-15T03:24:28.062Z,4.20
2022-08-15T03:26:55.241Z,3.70
2022-08-15T03:29:25.173Z,4.95
2022-08-15T03:32:01.707Z,9.82
2022-08-15T03:34:29.809Z,13.23
2022-08-15T03:36:58.383Z,15.18
2022-08-15T03:39:28.398Z,8.57
2022-08-15T03:41:56.274Z,9.55
2022-08-15T03:44:27.708Z,10.88
2022-08-15T03:46:56.335Z,7.00
2022-08-15T03:50:22.256Z,9.07
2022-08-15T03:52:11.032Z,6.05
2022-08-15T03:54:39.718Z,7.38
2022-08-15T03:57:09.639Z,9.82
2022-08-15T03:59:40.362Z,12.07
2022-08-15T04:02:29.852Z,5.10
2022-08-15T04:04:59.130Z,7.13
2022-08-15T04:07:40.606Z,12.75
2022-08-15T04:10:37.056Z,10.93
2022-08-15T04:12:59.982Z,7.45
2022-08-15T04:15:30.418Z,6.38
2022-08-15T04:17:59.750Z,6.07
2022-08-15T04:20:32.203Z,5.18
2022-08-15T04:23:02.413Z,6.88
2022-08-15T04:25:38.394Z,6.07
2022-08-15T04:28:28.925Z,6.22
2022-08-15T04:31:05.851Z,6.25
2022-08-15T04:34:03.129Z,9.60
2022-08-15T04:36:30.352Z,4.43
2022-08-15T04:38:59.785Z,6.43
2022-08-15T04:41:35.438Z,9.60
2022-08-15T04:44:05.134Z,4.90
2022-08-15T04:46:32.660Z,8.40
2022-08-15T04:49:00.162Z,11.07
2022-08-15T04:51:34.644Z,12.65
2022-08-15T04:54:04.224Z,8.63
2022-08-15T04:56:47.197Z,4.47
2022-08-15T04:59:34.355Z,8.52
2022-08-15T05:02:54.562Z,5.60
2022-08-15T05:04:55.739Z,6.32
2022-08-15T05:07:27.387Z,11.02
2022-08-15T05:09:59.333Z,8.35
2022-08-15T05:12:33.898Z,8.32
2022-08-15T05:15:04.069Z,5.55
2022-08-15T05:17:55.065Z,6.07
2022-08-15T05:20:23.717Z,8.48
2022-08-15T05:22:56.999Z,4.20
2022-08-15T05:25:29.633Z,7.22
2022-08-15T05:27:56.913Z,5.70
2022-08-15T05:30:28.180Z,7.15
2022-08-15T05:33:12.699Z,6.53
2022-08-15T05:35:51.642Z,8.32
2022-08-15T05:38:36.801Z,6.10
2022-08-15T05:41:26.199Z,5.82
2022-08-15T05:44:39.251Z,3.85
2022-08-15T05:47:25.299Z,6.97
2022-08-15T05:50:14.982Z,5.82
2022-08-15T05:53:05.477Z,5.63
2022-08-15T05:56:04.165Z,5.20
2022-08-15T05:58:52.597Z,6.93
2022-08-15T06:04:06.698Z,8.57
2022-08-15T06:06:46.641Z,12.27
2022-08-15T06:09:28.227Z,5.40
2022-08-15T06:12:22.229Z,7.57
2022-08-15T06:14:54.282Z,7.53
2022-08-15T06:17:27.003Z,6.60
2022-08-15T06:20:00.231Z,3.20
2022-08-15T06:22:46.534Z,5.65
2022-08-15T06:25:37.307Z,3.72
2022-08-15T06:28:51.967Z,6.20
2022-08-15T06:31:16.878Z,7.05
2022-08-15T06:34:05.281Z,6.68
2022-08-15T06:36:45.269Z,5.45
2022-08-15T06:39:31.143Z,3.45
2022-08-15T06:42:11.362Z,5.97
2022-08-15T06:44:43.778Z,4.70
2022-08-15T06:47:13.431Z,4.32
2022-08-15T06:49:47.497Z,3.92
2022-08-15T06:52:25.356Z,4.53
2022-08-15T06:54:53.130Z,4.22
2022-08-15T06:57:39.883Z,6.28
2022-08-15T07:00:35.704Z,5.22
2022-08-15T07:03:20.800Z,6.38
2022-08-15T07:05:56.230Z,5.25
2022-08-15T07:08:51.432Z,4.95
2022-08-15T07:11:28.488Z,7.15
2022-08-15T07:14:31.476Z,8.48
2022-08-15T07:17:16.063Z,8.27
2022-08-15T07:19:55.749Z,5.60
2022-08-15T07:22:35.675Z,5.10
2022-08-15T07:25:11.273Z,3.65
2022-08-15T07:27:39.297Z,6.57
2022-08-15T07:30:30.915Z,6.25
2022-08-15T07:32:59.035Z,5.20
2022-08-15T07:35:36.012Z,5.30
2022-08-15T07:40:56.398Z,5.25
2022-08-15T07:43:35.383Z,6.38
2022-08-15T07:46:23.861Z,7.15
2022-08-15T07:49:01.435Z,6.80
2022-08-15T07:54:35.111Z,6.80
2022-08-15T08:00:45.645Z,6.15
2022-08-15T08:03:34.399Z,8.18
2022-08-15T08:06:51.317Z,5.07
2022-08-15T08:09:32.241Z,6.07
2022-08-15T08:12:30.941Z,4.90
2022-08-15T08:18:42.965Z,4.72
2022-08-15T08:21:16.101Z,8.40
2022-08-15T08:23:47.211Z,5.47
2022-08-15T08:26:31.480Z,6.13
2022-08-15T08:29:20.952Z,7.70
2022-08-15T08:32:24.322Z,6.38
2022-08-15T08:35:24.077Z,5.90
2022-08-15T08:38:59.058Z,5.63
2022-08-15T08:41:45.828Z,4.75
2022-08-15T08:44:31.244Z,4.68
2022-08-15T08:47:30.978Z,4.45
2022-08-15T08:50:33.927Z,8.25
2022-08-15T08:53:02.835Z,5.38
2022-08-15T08:55:50.374Z,7.18
2022-08-15T08:58:47.032Z,5.18
2022-08-15T09:01:24.525Z,4.80
2022-08-15T09:04:01.791Z,5.50
2022-08-15T09:06:38.889Z,7.15
2022-08-15T09:09:19.139Z,4.93
2022-08-15T09:11:57.128Z,7.32
2022-08-15T09:14:32.032Z,8.63
2022-08-15T09:17:31.753Z,5.95
2022-08-15T09:20:12.103Z,8.63
2022-08-15T09:22:48.211Z,4.13
2022-08-15T09:25:15.562Z,5.72
2022-08-15T09:27:57.693Z,5.10
2022-08-15T09:30:33.560Z,4.43
2022-08-15T09:33:36.338Z,7.32
2022-08-15T09:36:25.085Z,6.18
2022-08-15T09:39:20.228Z,8.60
2022-08-15T09:41:57.089Z,6.18
2022-08-15T09:44:57.764Z,5.15
2022-08-15T09:47:55.911Z,8.32
2022-08-15T09:50:58.400Z,5.45
2022-08-15T09:53:52.342Z,7.40
2022-08-15T09:56:38.335Z,7.20
2022-08-15T09:59:26.530Z,5.03
2022-08-15T10:04:51.676Z,4.57
2022-08-15T10:07:45.409Z,5.22
2022-08-15T10:10:15.875Z,10.05
2022-08-15T10:13:08.872Z,7.47
2022-08-15T10:15:51.165Z,4.68
2022-08-15T10:18:27.608Z,9.45
2022-08-15T10:21:00.276Z,8.18
2022-08-15T10:23:41.824Z,4.85
2022-08-15T10:26:33.773Z,4.00
2022-08-15T10:29:09.131Z,5.38
2022-08-15T10:31:54.423Z,6.85
2022-08-15T10:34:57.573Z,7.72
2022-08-15T10:37:55.558Z,6.90
2022-08-15T10:40:51.686Z,5.63
2022-08-15T10:43:53.724Z,7.30
2022-08-15T10:46:44.927Z,8.23
2022-08-15T10:49:34.652Z,9.23
2022-08-15T10:52:20.822Z,5.30
2022-08-15T10:55:19.379Z,4.47
2022-08-15T10:58:15.645Z,4.25
2022-08-15T11:00:51.268Z,6.40
2022-08-15T11:04:57.669Z,4.05
2022-08-15T11:06:26.679Z,6.95
2022-08-15T11:08:59.374Z,4.05
2022-08-15T11:11:31.714Z,5.07
2022-08-15T11:14:20.608Z,7.00
2022-08-15T11:16:56.618Z,8.45
2022-08-15T11:20:10.460Z,6.57
2022-08-15T11:22:30.128Z,7.38
2022-08-15T11:25:01.790Z,5.70
2022-08-15T11:27:33.709Z,4.35
2022-08-15T11:30:18.860Z,3.15
2022-08-15T11:32:54.970Z,6.80
2022-08-15T11:35:26.041Z,5.70
2022-08-15T11:37:58.593Z,4.07
2022-08-15T11:40:40.272Z,5.85
2022-08-15T11:43:11.159Z,4.57
2022-08-15T11:45:51.236Z,11.93
2022-08-15T11:48:37.881Z,5.43
2022-08-15T11:51:17.361Z,5.37
2022-08-15T11:54:13.061Z,5.40
2022-08-15T11:57:02.048Z,6.97
2022-08-15T11:59:36.156Z,5.22
2022-08-15T12:02:32.426Z,4.07
2022-08-15T12:05:43.522Z,4.05
2022-08-15T12:08:21.469Z,4.68
2022-08-15T12:10:55.337Z,6.43
2022-08-15T12:13:33.989Z,4.85
2022-08-15T12:16:10.659Z,5.55
2022-08-15T12:18:51.624Z,4.28
2022-08-15T12:21:22.668Z,4.22
2022-08-15T12:24:00.540Z,3.03
2022-08-15T12:26:39.977Z,4.40
2022-08-15T12:29:18.759Z,3.33
2022-08-15T12:31:48.334Z,6.13
2022-08-15T12:34:27.477Z,3.95
2022-08-15T12:37:03.398Z,6.20
2022-08-15T12:39:44.679Z,5.25
2022-08-15T12:42:53.773Z,4.25
2022-08-15T12:45:17.162Z,7.15
2022-08-15T12:48:07.121Z,3.75
2022-08-15T12:50:33.005Z,5.75
2022-08-15T12:53:08.634Z,2.95
2022-08-15T12:55:38.851Z,7.55
2022-08-15T12:58:07.050Z,3.33
2022-08-15T13:00:37.024Z,3.17
2022-08-15T13:03:23.627Z,6.60
2022-08-15T13:06:32.582Z,6.70
2022-08-15T13:09:02.427Z,3.75
2022-08-15T13:11:32.524Z,9.30
2022-08-15T13:13:59.944Z,10.00
2022-08-15T13:17:05.725Z,32.72
2022-08-15T13:19:24.353Z,24.75
2022-08-15T13:22:32.491Z,34.25
2022-08-15T13:25:01.015Z,20.63
2022-08-15T13:27:29.325Z,18.98
2022-08-15T13:29:57.173Z,15.63
2022-08-15T13:32:25.370Z,15.50
2022-08-15T13:34:53.421Z,9.00
2022-08-15T13:38:01.117Z,8.27
2022-08-15T13:40:28.567Z,7.18
2022-08-15T13:43:02.466Z,13.20
2022-08-15T13:45:56.611Z,8.27
2022-08-15T13:48:37.019Z,10.90
2022-08-15T13:51:12.918Z,12.77
2022-08-15T13:54:32.902Z,9.57
2022-08-15T13:56:33.070Z,3.88
2022-08-15T13:59:12.304Z,5.40
2022-08-15T14:01:47.085Z,5.30
2022-08-15T14:04:20.421Z,5.80
2022-08-15T14:06:55.002Z,5.90
2022-08-15T14:10:04.243Z,4.60
2022-08-15T14:12:13.120Z,4.40
2022-08-15T14:14:46.889Z,4.22
2022-08-15T14:17:29.034Z,4.20
2022-08-15T14:20:26.985Z,4.15
2022-08-15T14:22:58.467Z,4.75
2022-08-15T14:27:09.088Z,4.55
2022-08-15T14:28:19.197Z,5.03
2022-08-15T14:30:55.205Z,6.15
2022-08-15T14:33:24.365Z,6.07
2022-08-15T14:35:58.410Z,5.18
2022-08-15T14:38:36.384Z,5.18
2022-08-15T14:41:04.214Z,6.70
2022-08-15T14:43:42.073Z,4.85
2022-08-15T14:46:31.135Z,6.30
2022-08-15T14:49:00.685Z,6.78
2022-08-15T14:52:23.280Z,5.25
2022-08-15T14:54:41.121Z,5.30
2022-08-15T14:57:11.102Z,5.18
2022-08-15T14:59:55.828Z,6.75
2022-08-15T15:02:28.649Z,6.53
2022-08-15T15:04:58.114Z,8.48
2022-08-15T15:07:53.772Z,6.78
2022-08-15T15:10:24.802Z,7.60
2022-08-15T15:13:00.437Z,6.10
2022-08-15T15:15:39.649Z,5.88
2022-08-15T15:18:33.932Z,6.68
2022-08-15T15:21:02.337Z,8.55
2022-08-15T15:23:30.256Z,6.32
2022-08-15T15:26:03.499Z,8.98
2022-08-15T15:28:41.499Z,8.30
2022-08-15T15:31:17.537Z,8.27
2022-08-15T15:33:45.479Z,3.97
2022-08-15T15:36:27.001Z,4.30
2022-08-15T15:39:02.403Z,4.82
2022-08-15T15:41:32.632Z,6.18
2022-08-15T15:44:19.081Z,4.45
2022-08-15T15:46:47.273Z,5.40
2022-08-15T15:49:29.022Z,5.55
2022-08-15T15:51:57.686Z,5.85
2022-08-15T15:54:39.294Z,6.30
2022-08-15T15:57:14.138Z,5.45
2022-08-15T15:59:58.131Z,5.13
2022-08-15T16:02:43.796Z,4.53
2022-08-15T16:05:23.045Z,4.32
2022-08-15T16:07:55.854Z,3.65
2022-08-15T16:10:36.634Z,5.70
2022-08-15T16:13:13.725Z,3.13
2022-08-15T16:15:49.729Z,4.03
2022-08-15T16:18:27.799Z,3.45
2022-08-15T16:20:58.821Z,3.38
2022-08-15T16:24:06.783Z,3.45
2022-08-15T16:26:53.512Z,4.15
2022-08-15T16:29:43.983Z,2.95
2022-08-15T16:32:20.473Z,3.83
2022-08-15T16:35:13.347Z,4.15
2022-08-15T16:37:46.188Z,4.68
2022-08-15T16:40:26.369Z,4.45
2022-08-15T16:43:14.987Z,3.55
2022-08-15T16:45:59.536Z,3.92
2022-08-15T16:48:57.143Z,4.35
2022-08-15T16:51:37.113Z,4.40
2022-08-15T16:54:10.280Z,5.22
2022-08-15T16:57:17.623Z,4.10
2022-08-15T16:59:52.597Z,4.15
2022-08-15T17:03:04.030Z,3.20
2022-08-15T17:05:56.840Z,3.10
2022-08-15T17:08:37.554Z,3.95
2022-08-15T17:11:21.912Z,3.65
2022-08-15T17:14:02.456Z,4.28
2022-08-15T17:16:53.785Z,5.10
2022-08-15T17:19:32.562Z,3.20
2022-08-15T17:22:17.214Z,5.85
2022-08-15T17:25:10.327Z,3.03
2022-08-15T17:28:34.043Z,4.18
2022-08-15T17:30:58.636Z,5.22
2022-08-15T17:33:43.628Z,3.05
2022-08-15T17:36:24.066Z,2.92
2022-08-15T17:39:05.261Z,7.65
2022-08-15T17:41:41.305Z,5.18
2022-08-15T17:44:50.547Z,3.90
2022-08-15T17:47:25.073Z,3.83
2022-08-15T17:50:46.904Z,4.93
2022-08-15T17:53:26.494Z,5.57
2022-08-15T17:55:59.281Z,3.47
2022-08-15T17:58:51.265Z,6.22
2022-08-15T18:01:19.428Z,3.03
2022-08-15T18:03:47.519Z,6.35
2022-08-15T18:06:15.103Z,4.97
2022-08-15T18:08:54.588Z,4.40
2022-08-15T18:11:34.324Z,4.03
2022-08-15T18:14:38.708Z,3.90
2022-08-15T18:17:02.760Z,6.68
2022-08-15T18:19:36.334Z,5.78
2022-08-15T18:22:22.840Z,5.30
2022-08-15T18:25:00.104Z,4.80
2022-08-15T18:27:54.740Z,5.95
2022-08-15T18:30:28.240Z,4.13
2022-08-15T18:33:48.893Z,6.03
2022-08-15T18:36:26.107Z,8.95
2022-08-15T18:39:18.964Z,5.68
2022-08-15T18:41:49.128Z,6.47
2022-08-15T18:44:41.303Z,7.35
2022-08-15T18:47:22.977Z,7.90
2022-08-15T18:49:50.089Z,6.72
2022-08-15T18:52:20.471Z,10.60
2022-08-15T18:55:01.201Z,10.10
2022-08-15T18:57:43.654Z,4.10
2022-08-15T19:00:16.545Z,6.20
2022-08-15T19:02:49.373Z,7.40
2022-08-15T19:05:26.126Z,6.65
2022-08-15T19:07:58.424Z,6.90
2022-08-15T19:10:30.720Z,9.60
2022-08-15T19:13:04.658Z,10.82
2022-08-15T19:15:40.992Z,6.03
2022-08-15T19:18:24.878Z,11.95
2022-08-15T19:21:10.891Z,7.63
2022-08-15T19:23:48.055Z,5.97
2022-08-15T19:26:31.342Z,10.25
2022-08-15T19:29:16.450Z,7.75
2022-08-15T19:31:59.921Z,9.60
2022-08-15T19:35:11.428Z,6.97
2022-08-15T19:37:57.338Z,6.25
2022-08-15T19:40:58.499Z,10.10
2022-08-15T19:44:00.262Z,6.93
2022-08-15T19:47:24.433Z,4.82
2022-08-15T19:50:38.351Z,8.15
2022-08-15T19:53:43.065Z,5.85
2022-08-15T19:56:43.679Z,5.95
2022-08-15T19:59:35.949Z,7.50
2022-08-15T20:02:02.970Z,7.25
2022-08-15T20:05:06.792Z,5.35
2022-08-15T20:07:46.125Z,7.13
2022-08-15T20:10:26.663Z,5.97
2022-08-15T20:13:12.552Z,6.95
2022-08-15T20:16:55.120Z,5.50
2022-08-15T20:19:44.997Z,5.50
2022-08-15T20:22:42.556Z,11.20
2022-08-15T20:25:26.466Z,5.28
2022-08-15T20:27:55.445Z,5.03
2022-08-15T20:30:36.613Z,7.40
2022-08-15T20:33:17.156Z,5.75
2022-08-15T20:36:01.639Z,9.18
2022-08-15T20:38:47.821Z,8.48
2022-08-15T20:41:28.031Z,7.40
2022-08-15T20:44:31.659Z,7.53
2022-08-15T20:46:59.619Z,5.28
2022-08-15T20:49:33.859Z,4.53
2022-08-15T20:52:39.561Z,6.47
2022-08-15T20:55:00.158Z,9.02
2022-08-15T20:57:40.576Z,5.43
2022-08-15T21:01:13.087Z,7.30
2022-08-15T21:03:08.935Z,7.55
2022-08-15T21:06:18.465Z,4.97
2022-08-15T21:08:55.225Z,7.50
2022-08-15T21:11:42.718Z,8.33
2022-08-15T21:15:09.216Z,5.97
2022-08-15T21:17:41.324Z,6.60
2022-08-15T21:20:33.223Z,7.32
2022-08-15T21:23:15.222Z,11.30
2022-08-15T21:25:44.776Z,6.55
2022-08-15T21:28:30.569Z,7.57
2022-08-15T21:31:25.026Z,8.50
2022-08-15T21:34:03.322Z,6.68
2022-08-15T21:36:35.535Z,10.23
2022-08-15T21:39:34.526Z,4.85
2022-08-15T21:45:02.986Z,9.83
2022-08-15T21:47:34.424Z,6.65
2022-08-15T21:50:26.463Z,8.75
2022-08-15T21:53:00.570Z,8.60
2022-08-15T21:55:33.493Z,7.93
2022-08-15T22:00:45.856Z,9.82
2022-08-15T22:03:40.399Z,8.05
2022-08-15T22:06:23.211Z,10.40
2022-08-15T22:08:55.375Z,10.27
2022-08-15T22:11:36.015Z,8.57
2022-08-15T22:14:06.597Z,10.55
2022-08-15T22:16:37.727Z,10.07
2022-08-15T22:19:10.474Z,8.73
2022-08-15T22:21:48.560Z,9.57
2022-08-15T22:24:17.852Z,7.82
2022-08-15T22:26:51.838Z,7.07
2022-08-15T22:29:31.498Z,7.80
2022-08-15T22:32:31.925Z,7.00
2022-08-15T22:34:49.943Z,10.85
2022-08-15T22:37:20.413Z,7.53
2022-08-15T22:39:48.438Z,9.80
2022-08-15T22:42:26.706Z,7.82
2022-08-15T22:44:54.076Z,7.07
2022-08-15T22:47:23.148Z,10.45
2022-08-15T22:49:55.181Z,8.98
2022-08-15T22:52:27.624Z,9.60
2022-08-15T22:54:58.052Z,9.18
2022-08-15T22:57:58.287Z,9.75
2022-08-15T23:00:18.226Z,7.38
2022-08-15T23:02:47.220Z,8.57
2022-08-15T23:05:25.973Z,11.75
2022-08-15T23:08:04.857Z,9.82
2022-08-15T23:10:43.541Z,7.63
2022-08-15T23:13:28.469Z,8.65
2022-08-15T23:16:03.804Z,7.55
2022-08-15T23:18:43.764Z,10.23
2022-08-15T23:21:16.277Z,8.18
2022-08-15T23:23:55.419Z,7.53
2022-08-15T23:26:32.030Z,8.50
2022-08-15T23:29:08.736Z,8.10
2022-08-15T23:31:49.375Z,11.38
2022-08-15T23:34:21.188Z,14.35
2022-08-15T23:37:01.216Z,10.52
2022-08-15T23:39:43.448Z,9.40
2022-08-15T23:42:28.191Z,7.97
2022-08-15T23:44:58.696Z,13.00
2022-08-15T23:47:29.095Z,12.43
2022-08-15T23:49:57.883Z,10.57
2022-08-15T23:52:29.629Z,11.07
2022-08-15T23:55:08.670Z,9.60
2022-08-15T23:57:36.636Z,7.82
